sensor_id;sensor_type;location;lat;lon;timestamp;P1;durP1;ratioP1;P2;durP2;ratioP2
45792;SDS011;31495;42.740;22.908;2023-07-31T00:00:40;2.97;;;1.90;;
45792;SDS011;31495;42.740;22.908;2023-07-31T00:01:40;3.83;;;2.50;;
45792;SDS011;31495;42.740;22.908;2023-07-31T00:02:41;7.07;;;2.00;;
45792;SDS011;31495;42.740;22.908;2023-07-31T00:03:40;3.78;;;1.95;;
45792;SDS011;31495;42.740;22.908;2023-07-31T00:04:40;2.85;;;1.85;;
45792;SDS011;31495;42.740;22.908;2023-07-31T00:05:39;3.47;;;1.75;;
45792;SDS011;31495;42.740;22.908;2023-07-31T00:06:38;3.03;;;2.25;;
45792;SDS011;31495;42.740;22.908;2023-07-31T00:07:37;3.10;;;1.70;;
45792;SDS011;31495;42.740;22.908;2023-07-31T00:08:37;2.78;;;1.88;;
45792;SDS011;31495;42.740;22.908;2023-07-31T00:09:36;5.10;;;2.17;;
45792;SDS011;31495;42.740;22.908;2023-07-31T00:10:36;3.63;;;1.67;;
45792;SDS011;31495;42.740;22.908;2023-07-31T00:11:36;4.10;;;2.15;;
45792;SDS011;31495;42.740;22.908;2023-07-31T00:12:35;2.47;;;1.77;;
45792;SDS011;31495;42.740;22.908;2023-07-31T00:13:35;7.45;;;2.15;;
45792;SDS011;31495;42.740;22.908;2023-07-31T00:14:34;2.30;;;2.00;;
45792;SDS011;31495;42.740;22.908;2023-07-31T00:15:34;3.08;;;2.17;;
45792;SDS011;31495;42.740;22.908;2023-07-31T00:16:33;4.80;;;1.77;;
45792;SDS011;31495;42.740;22.908;2023-07-31T00:17:33;3.15;;;1.95;;
45792;SDS011;31495;42.740;22.908;2023-07-31T00:18:33;2.72;;;2.15;;
45792;SDS011;31495;42.740;22.908;2023-07-31T00:19:32;3.05;;;1.70;;
45792;SDS011;31495;42.740;22.908;2023-07-31T00:20:31;2.97;;;1.98;;
45792;SDS011;31495;42.740;22.908;2023-07-31T00:21:31;3.53;;;2.08;;
45792;SDS011;31495;42.740;22.908;2023-07-31T00:22:30;3.78;;;2.08;;
45792;SDS011;31495;42.740;22.908;2023-07-31T00:23:30;4.15;;;2.22;;
45792;SDS011;31495;42.740;22.908;2023-07-31T00:24:29;4.32;;;2.20;;
45792;SDS011;31495;42.740;22.908;2023-07-31T00:25:29;4.35;;;2.53;;
45792;SDS011;31495;42.740;22.908;2023-07-31T00:26:28;2.78;;;2.15;;
45792;SDS011;31495;42.740;22.908;2023-07-31T00:27:28;3.53;;;2.15;;
45792;SDS011;31495;42.740;22.908;2023-07-31T00:28:27;3.03;;;2.15;;
45792;SDS011;31495;42.740;22.908;2023-07-31T00:29:28;4.97;;;2.05;;
45792;SDS011;31495;42.740;22.908;2023-07-31T00:30:27;3.80;;;1.80;;
45792;SDS011;31495;42.740;22.908;2023-07-31T00:31:27;3.50;;;2.13;;
45792;SDS011;31495;42.740;22.908;2023-07-31T00:32:26;5.72;;;2.33;;
45792;SDS011;31495;42.740;22.908;2023-07-31T00:33:25;2.40;;;2.17;;
45792;SDS011;31495;42.740;22.908;2023-07-31T00:34:25;3.45;;;2.22;;
45792;SDS011;31495;42.740;22.908;2023-07-31T00:35:25;3.70;;;2.17;;
45792;SDS011;31495;42.740;22.908;2023-07-31T00:36:25;2.90;;;2.03;;
45792;SDS011;31495;42.740;22.908;2023-07-31T00:37:24;4.10;;;2.15;;
45792;SDS011;31495;42.740;22.908;2023-07-31T00:38:24;3.17;;;1.88;;
45792;SDS011;31495;42.740;22.908;2023-07-31T00:39:23;3.95;;;2.35;;
45792;SDS011;31495;42.740;22.908;2023-07-31T00:40:23;3.28;;;2.28;;
45792;SDS011;31495;42.740;22.908;2023-07-31T00:41:22;2.92;;;2.40;;
45792;SDS011;31495;42.740;22.908;2023-07-31T00:42:21;3.63;;;2.55;;
45792;SDS011;31495;42.740;22.908;2023-07-31T00:43:21;3.28;;;2.42;;
45792;SDS011;31495;42.740;22.908;2023-07-31T00:44:21;5.60;;;2.38;;
45792;SDS011;31495;42.740;22.908;2023-07-31T00:45:21;4.82;;;2.40;;
45792;SDS011;31495;42.740;22.908;2023-07-31T00:46:22;3.70;;;2.30;;
45792;SDS011;31495;42.740;22.908;2023-07-31T00:47:22;8.57;;;2.70;;
45792;SDS011;31495;42.740;22.908;2023-07-31T00:48:21;3.88;;;2.20;;
45792;SDS011;31495;42.740;22.908;2023-07-31T00:49:21;3.22;;;2.40;;
45792;SDS011;31495;42.740;22.908;2023-07-31T00:50:24;4.60;;;2.50;;
45792;SDS011;31495;42.740;22.908;2023-07-31T00:51:24;3.55;;;2.42;;
45792;SDS011;31495;42.740;22.908;2023-07-31T00:52:24;4.00;;;2.35;;
45792;SDS011;31495;42.740;22.908;2023-07-31T00:53:24;3.65;;;2.63;;
45792;SDS011;31495;42.740;22.908;2023-07-31T00:54:24;4.40;;;2.23;;
45792;SDS011;31495;42.740;22.908;2023-07-31T00:55:24;2.72;;;1.98;;
45792;SDS011;31495;42.740;22.908;2023-07-31T00:56:24;4.00;;;2.08;;
45792;SDS011;31495;42.740;22.908;2023-07-31T00:57:24;3.72;;;2.58;;
45792;SDS011;31495;42.740;22.908;2023-07-31T00:58:24;3.42;;;2.33;;
45792;SDS011;31495;42.740;22.908;2023-07-31T00:59:24;7.65;;;2.78;;
45792;SDS011;31495;42.740;22.908;2023-07-31T01:00:23;5.10;;;2.80;;
45792;SDS011;31495;42.740;22.908;2023-07-31T01:01:23;3.15;;;2.30;;
45792;SDS011;31495;42.740;22.908;2023-07-31T01:02:22;5.55;;;2.45;;
45792;SDS011;31495;42.740;22.908;2023-07-31T01:03:22;3.17;;;2.40;;
45792;SDS011;31495;42.740;22.908;2023-07-31T01:04:21;7.90;;;2.97;;
45792;SDS011;31495;42.740;22.908;2023-07-31T01:05:45;3.40;;;2.10;;
45792;SDS011;31495;42.740;22.908;2023-07-31T01:09:32;3.90;;;2.78;;
45792;SDS011;31495;42.740;22.908;2023-07-31T01:10:42;4.15;;;2.92;;
45792;SDS011;31495;42.740;22.908;2023-07-31T01:11:51;4.93;;;2.25;;
45792;SDS011;31495;42.740;22.908;2023-07-31T01:12:53;4.57;;;2.72;;
45792;SDS011;31495;42.740;22.908;2023-07-31T01:13:53;4.30;;;2.35;;
45792;SDS011;31495;42.740;22.908;2023-07-31T01:15:05;4.78;;;2.40;;
45792;SDS011;31495;42.740;22.908;2023-07-31T01:16:10;3.30;;;2.55;;
45792;SDS011;31495;42.740;22.908;2023-07-31T01:17:09;4.00;;;2.80;;
45792;SDS011;31495;42.740;22.908;2023-07-31T01:18:08;6.30;;;2.55;;
45792;SDS011;31495;42.740;22.908;2023-07-31T01:19:08;3.33;;;2.45;;
45792;SDS011;31495;42.740;22.908;2023-07-31T01:21:28;3.67;;;2.67;;
45792;SDS011;31495;42.740;22.908;2023-07-31T01:26:41;5.07;;;3.33;;
45792;SDS011;31495;42.740;22.908;2023-07-31T01:28:05;3.40;;;2.60;;
45792;SDS011;31495;42.740;22.908;2023-07-31T01:30:32;4.50;;;2.88;;
45792;SDS011;31495;42.740;22.908;2023-07-31T01:31:35;4.20;;;3.40;;
45792;SDS011;31495;42.740;22.908;2023-07-31T01:32:36;3.97;;;2.83;;
45792;SDS011;31495;42.740;22.908;2023-07-31T01:33:38;3.42;;;2.95;;
45792;SDS011;31495;42.740;22.908;2023-07-31T01:34:38;3.67;;;2.85;;
45792;SDS011;31495;42.740;22.908;2023-07-31T01:35:43;4.28;;;2.88;;
45792;SDS011;31495;42.740;22.908;2023-07-31T01:36:45;3.50;;;2.75;;
45792;SDS011;31495;42.740;22.908;2023-07-31T01:37:45;4.68;;;3.08;;
45792;SDS011;31495;42.740;22.908;2023-07-31T01:38:45;4.97;;;4.18;;
45792;SDS011;31495;42.740;22.908;2023-07-31T01:39:44;7.18;;;3.65;;
45792;SDS011;31495;42.740;22.908;2023-07-31T01:40:43;5.43;;;3.90;;
45792;SDS011;31495;42.740;22.908;2023-07-31T01:41:43;6.85;;;3.80;;
45792;SDS011;31495;42.740;22.908;2023-07-31T01:42:42;4.95;;;3.80;;
45792;SDS011;31495;42.740;22.908;2023-07-31T01:43:42;4.05;;;3.50;;
45792;SDS011;31495;42.740;22.908;2023-07-31T01:44:41;4.10;;;3.38;;
45792;SDS011;31495;42.740;22.908;2023-07-31T01:45:41;4.57;;;3.92;;
45792;SDS011;31495;42.740;22.908;2023-07-31T01:46:40;4.72;;;3.80;;
45792;SDS011;31495;42.740;22.908;2023-07-31T01:47:39;4.90;;;3.47;;
45792;SDS011;31495;42.740;22.908;2023-07-31T01:48:39;6.68;;;5.03;;
45792;SDS011;31495;42.740;22.908;2023-07-31T01:49:38;5.28;;;4.07;;
45792;SDS011;31495;42.740;22.908;2023-07-31T01:50:38;6.10;;;5.03;;
45792;SDS011;31495;42.740;22.908;2023-07-31T01:51:37;6.57;;;4.88;;
45792;SDS011;31495;42.740;22.908;2023-07-31T01:52:37;6.57;;;4.93;;
45792;SDS011;31495;42.740;22.908;2023-07-31T01:53:36;6.38;;;5.18;;
45792;SDS011;31495;42.740;22.908;2023-07-31T01:54:36;9.10;;;5.50;;
45792;SDS011;31495;42.740;22.908;2023-07-31T01:55:36;6.05;;;4.90;;
45792;SDS011;31495;42.740;22.908;2023-07-31T01:56:35;7.97;;;4.75;;
45792;SDS011;31495;42.740;22.908;2023-07-31T01:57:36;8.68;;;5.82;;
45792;SDS011;31495;42.740;22.908;2023-07-31T01:58:35;7.60;;;6.13;;
45792;SDS011;31495;42.740;22.908;2023-07-31T01:59:35;7.32;;;5.65;;
45792;SDS011;31495;42.740;22.908;2023-07-31T02:00:34;7.50;;;5.63;;
45792;SDS011;31495;42.740;22.908;2023-07-31T02:01:34;7.35;;;5.28;;
45792;SDS011;31495;42.740;22.908;2023-07-31T02:02:33;8.93;;;5.75;;
45792;SDS011;31495;42.740;22.908;2023-07-31T02:03:33;7.65;;;5.43;;
45792;SDS011;31495;42.740;22.908;2023-07-31T02:04:32;11.23;;;5.63;;
45792;SDS011;31495;42.740;22.908;2023-07-31T02:05:31;7.00;;;5.40;;
45792;SDS011;31495;42.740;22.908;2023-07-31T02:06:31;7.55;;;5.65;;
45792;SDS011;31495;42.740;22.908;2023-07-31T02:07:30;9.23;;;5.35;;
45792;SDS011;31495;42.740;22.908;2023-07-31T02:08:30;8.82;;;5.78;;
45792;SDS011;31495;42.740;22.908;2023-07-31T02:09:29;7.30;;;5.65;;
45792;SDS011;31495;42.740;22.908;2023-07-31T02:10:29;11.43;;;6.35;;
45792;SDS011;31495;42.740;22.908;2023-07-31T02:11:28;9.05;;;6.80;;
45792;SDS011;31495;42.740;22.908;2023-07-31T02:12:27;10.15;;;7.25;;
45792;SDS011;31495;42.740;22.908;2023-07-31T02:13:30;10.63;;;8.65;;
45792;SDS011;31495;42.740;22.908;2023-07-31T02:14:29;12.43;;;8.40;;
45792;SDS011;31495;42.740;22.908;2023-07-31T02:15:29;11.50;;;7.97;;
45792;SDS011;31495;42.740;22.908;2023-07-31T02:16:29;11.57;;;9.38;;
45792;SDS011;31495;42.740;22.908;2023-07-31T02:17:29;13.85;;;9.80;;
45792;SDS011;31495;42.740;22.908;2023-07-31T02:18:28;14.15;;;10.45;;
45792;SDS011;31495;42.740;22.908;2023-07-31T02:19:28;15.52;;;10.18;;
45792;SDS011;31495;42.740;22.908;2023-07-31T02:20:27;13.73;;;10.60;;
45792;SDS011;31495;42.740;22.908;2023-07-31T02:21:26;14.15;;;10.60;;
45792;SDS011;31495;42.740;22.908;2023-07-31T02:22:26;15.48;;;11.60;;
45792;SDS011;31495;42.740;22.908;2023-07-31T02:23:25;16.90;;;12.55;;
45792;SDS011;31495;42.740;22.908;2023-07-31T02:24:25;16.52;;;12.20;;
45792;SDS011;31495;42.740;22.908;2023-07-31T02:25:24;15.23;;;11.60;;
45792;SDS011;31495;42.740;22.908;2023-07-31T02:26:23;17.50;;;12.25;;
45792;SDS011;31495;42.740;22.908;2023-07-31T02:27:23;16.98;;;12.80;;
45792;SDS011;31495;42.740;22.908;2023-07-31T02:28:26;14.48;;;11.63;;
45792;SDS011;31495;42.740;22.908;2023-07-31T02:29:26;18.55;;;12.43;;
45792;SDS011;31495;42.740;22.908;2023-07-31T02:30:25;16.75;;;12.05;;
45792;SDS011;31495;42.740;22.908;2023-07-31T02:31:24;18.45;;;13.35;;
45792;SDS011;31495;42.740;22.908;2023-07-31T02:32:24;18.00;;;12.38;;
45792;SDS011;31495;42.740;22.908;2023-07-31T02:33:23;16.35;;;12.43;;
45792;SDS011;31495;42.740;22.908;2023-07-31T02:34:23;16.27;;;12.50;;
45792;SDS011;31495;42.740;22.908;2023-07-31T02:35:22;14.98;;;12.13;;
45792;SDS011;31495;42.740;22.908;2023-07-31T02:36:22;15.82;;;12.40;;
45792;SDS011;31495;42.740;22.908;2023-07-31T02:37:21;16.15;;;12.63;;
45792;SDS011;31495;42.740;22.908;2023-07-31T02:38:20;17.65;;;14.10;;
45792;SDS011;31495;42.740;22.908;2023-07-31T02:39:20;19.05;;;13.35;;
45792;SDS011;31495;42.740;22.908;2023-07-31T02:40:19;18.23;;;14.60;;
45792;SDS011;31495;42.740;22.908;2023-07-31T02:41:19;16.35;;;13.32;;
45792;SDS011;31495;42.740;22.908;2023-07-31T02:42:18;16.55;;;12.27;;
45792;SDS011;31495;42.740;22.908;2023-07-31T02:43:18;16.42;;;12.68;;
45792;SDS011;31495;42.740;22.908;2023-07-31T02:44:17;17.70;;;13.45;;
45792;SDS011;31495;42.740;22.908;2023-07-31T02:45:17;18.65;;;14.23;;
45792;SDS011;31495;42.740;22.908;2023-07-31T02:46:17;18.88;;;13.90;;
45792;SDS011;31495;42.740;22.908;2023-07-31T02:47:16;20.23;;;13.55;;
45792;SDS011;31495;42.740;22.908;2023-07-31T02:48:16;18.15;;;12.77;;
45792;SDS011;31495;42.740;22.908;2023-07-31T02:49:15;17.23;;;13.40;;
45792;SDS011;31495;42.740;22.908;2023-07-31T02:50:15;16.48;;;12.48;;
45792;SDS011;31495;42.740;22.908;2023-07-31T02:51:14;16.85;;;13.07;;
45792;SDS011;31495;42.740;22.908;2023-07-31T02:52:14;15.48;;;11.75;;
45792;SDS011;31495;42.740;22.908;2023-07-31T02:53:13;16.63;;;12.63;;
45792;SDS011;31495;42.740;22.908;2023-07-31T02:54:13;16.38;;;12.13;;
45792;SDS011;31495;42.740;22.908;2023-07-31T02:55:12;17.63;;;12.52;;
45792;SDS011;31495;42.740;22.908;2023-07-31T02:56:13;16.00;;;12.85;;
45792;SDS011;31495;42.740;22.908;2023-07-31T02:57:12;17.17;;;12.98;;
45792;SDS011;31495;42.740;22.908;2023-07-31T02:58:12;15.60;;;12.82;;
45792;SDS011;31495;42.740;22.908;2023-07-31T02:59:11;17.30;;;13.25;;
45792;SDS011;31495;42.740;22.908;2023-07-31T03:00:11;16.80;;;12.07;;
45792;SDS011;31495;42.740;22.908;2023-07-31T03:01:10;18.90;;;12.70;;
45792;SDS011;31495;42.740;22.908;2023-07-31T03:02:10;17.27;;;13.40;;
45792;SDS011;31495;42.740;22.908;2023-07-31T03:03:10;17.50;;;13.27;;
45792;SDS011;31495;42.740;22.908;2023-07-31T03:04:10;16.65;;;13.10;;
45792;SDS011;31495;42.740;22.908;2023-07-31T03:05:09;16.02;;;12.10;;
45792;SDS011;31495;42.740;22.908;2023-07-31T03:06:09;16.33;;;12.20;;
45792;SDS011;31495;42.740;22.908;2023-07-31T03:07:08;15.73;;;12.70;;
45792;SDS011;31495;42.740;22.908;2023-07-31T03:08:08;18.23;;;13.57;;
45792;SDS011;31495;42.740;22.908;2023-07-31T03:09:07;16.02;;;13.00;;
45792;SDS011;31495;42.740;22.908;2023-07-31T03:10:07;16.15;;;11.75;;
45792;SDS011;31495;42.740;22.908;2023-07-31T03:11:06;17.77;;;12.07;;
45792;SDS011;31495;42.740;22.908;2023-07-31T03:12:06;18.40;;;14.07;;
45792;SDS011;31495;42.740;22.908;2023-07-31T03:13:06;20.30;;;14.40;;
45792;SDS011;31495;42.740;22.908;2023-07-31T03:14:05;20.83;;;14.75;;
45792;SDS011;31495;42.740;22.908;2023-07-31T03:15:05;17.33;;;13.93;;
45792;SDS011;31495;42.740;22.908;2023-07-31T03:16:05;19.88;;;15.15;;
45792;SDS011;31495;42.740;22.908;2023-07-31T03:17:05;22.73;;;15.95;;
45792;SDS011;31495;42.740;22.908;2023-07-31T03:18:04;19.27;;;14.80;;
45792;SDS011;31495;42.740;22.908;2023-07-31T03:19:04;18.90;;;15.15;;
45792;SDS011;31495;42.740;22.908;2023-07-31T03:20:03;20.52;;;14.48;;
45792;SDS011;31495;42.740;22.908;2023-07-31T03:21:04;21.92;;;16.00;;
45792;SDS011;31495;42.740;22.908;2023-07-31T03:22:04;24.40;;;16.00;;
45792;SDS011;31495;42.740;22.908;2023-07-31T03:23:04;23.38;;;16.42;;
45792;SDS011;31495;42.740;22.908;2023-07-31T03:24:04;21.55;;;16.50;;
45792;SDS011;31495;42.740;22.908;2023-07-31T03:25:04;21.95;;;16.15;;
45792;SDS011;31495;42.740;22.908;2023-07-31T03:26:05;22.55;;;16.13;;
45792;SDS011;31495;42.740;22.908;2023-07-31T03:27:06;26.58;;;18.48;;
45792;SDS011;31495;42.740;22.908;2023-07-31T03:28:06;21.70;;;16.77;;
45792;SDS011;31495;42.740;22.908;2023-07-31T03:29:05;20.58;;;15.82;;
45792;SDS011;31495;42.740;22.908;2023-07-31T03:30:05;22.83;;;16.50;;
45792;SDS011;31495;42.740;22.908;2023-07-31T03:31:05;21.80;;;15.95;;
45792;SDS011;31495;42.740;22.908;2023-07-31T03:32:04;20.08;;;15.48;;
45792;SDS011;31495;42.740;22.908;2023-07-31T03:33:04;24.63;;;16.25;;
45792;SDS011;31495;42.740;22.908;2023-07-31T03:34:04;20.27;;;14.77;;
45792;SDS011;31495;42.740;22.908;2023-07-31T03:35:03;21.38;;;15.18;;
45792;SDS011;31495;42.740;22.908;2023-07-31T03:36:04;21.77;;;15.05;;
45792;SDS011;31495;42.740;22.908;2023-07-31T03:37:05;19.92;;;15.57;;
45792;SDS011;31495;42.740;22.908;2023-07-31T03:38:04;21.25;;;14.93;;
45792;SDS011;31495;42.740;22.908;2023-07-31T03:39:03;21.25;;;16.05;;
45792;SDS011;31495;42.740;22.908;2023-07-31T03:40:03;19.15;;;15.13;;
45792;SDS011;31495;42.740;22.908;2023-07-31T03:41:03;19.55;;;15.52;;
45792;SDS011;31495;42.740;22.908;2023-07-31T03:43:04;19.63;;;14.43;;
45792;SDS011;31495;42.740;22.908;2023-07-31T03:44:04;22.08;;;15.40;;
45792;SDS011;31495;42.740;22.908;2023-07-31T03:45:03;21.17;;;14.32;;
45792;SDS011;31495;42.740;22.908;2023-07-31T03:46:03;20.77;;;15.25;;
45792;SDS011;31495;42.740;22.908;2023-07-31T03:47:03;20.50;;;14.40;;
45792;SDS011;31495;42.740;22.908;2023-07-31T03:48:03;18.45;;;14.02;;
45792;SDS011;31495;42.740;22.908;2023-07-31T03:49:03;20.30;;;14.43;;
45792;SDS011;31495;42.740;22.908;2023-07-31T03:50:02;22.80;;;15.07;;
45792;SDS011;31495;42.740;22.908;2023-07-31T03:51:02;25.33;;;15.80;;
45792;SDS011;31495;42.740;22.908;2023-07-31T03:52:01;20.13;;;14.43;;
45792;SDS011;31495;42.740;22.908;2023-07-31T03:53:02;21.52;;;15.57;;
45792;SDS011;31495;42.740;22.908;2023-07-31T03:54:01;22.35;;;15.63;;
45792;SDS011;31495;42.740;22.908;2023-07-31T03:55:01;24.02;;;16.65;;
45792;SDS011;31495;42.740;22.908;2023-07-31T03:56:00;22.17;;;16.00;;
45792;SDS011;31495;42.740;22.908;2023-07-31T03:56:59;24.63;;;16.63;;
45792;SDS011;31495;42.740;22.908;2023-07-31T03:57:59;22.90;;;17.30;;
45792;SDS011;31495;42.740;22.908;2023-07-31T03:58:59;23.98;;;16.45;;
45792;SDS011;31495;42.740;22.908;2023-07-31T03:59:58;21.45;;;16.27;;
45792;SDS011;31495;42.740;22.908;2023-07-31T04:00:58;20.52;;;15.43;;
45792;SDS011;31495;42.740;22.908;2023-07-31T04:01:57;24.80;;;15.50;;
45792;SDS011;31495;42.740;22.908;2023-07-31T04:02:57;24.80;;;16.23;;
45792;SDS011;31495;42.740;22.908;2023-07-31T04:03:56;24.23;;;15.80;;
45792;SDS011;31495;42.740;22.908;2023-07-31T04:04:56;22.48;;;15.82;;
45792;SDS011;31495;42.740;22.908;2023-07-31T04:05:55;22.77;;;17.05;;
45792;SDS011;31495;42.740;22.908;2023-07-31T04:06:55;22.75;;;17.10;;
45792;SDS011;31495;42.740;22.908;2023-07-31T04:07:54;22.27;;;16.42;;
45792;SDS011;31495;42.740;22.908;2023-07-31T04:08:54;21.85;;;16.17;;
45792;SDS011;31495;42.740;22.908;2023-07-31T04:09:53;21.38;;;16.02;;
45792;SDS011;31495;42.740;22.908;2023-07-31T04:10:53;25.42;;;16.05;;
45792;SDS011;31495;42.740;22.908;2023-07-31T04:11:52;22.38;;;16.52;;
45792;SDS011;31495;42.740;22.908;2023-07-31T04:12:52;24.17;;;17.42;;
45792;SDS011;31495;42.740;22.908;2023-07-31T04:13:52;19.25;;;14.90;;
45792;SDS011;31495;42.740;22.908;2023-07-31T04:14:52;19.63;;;15.00;;
45792;SDS011;31495;42.740;22.908;2023-07-31T04:15:51;24.45;;;16.30;;
45792;SDS011;31495;42.740;22.908;2023-07-31T04:16:50;22.45;;;16.33;;
45792;SDS011;31495;42.740;22.908;2023-07-31T04:17:51;23.40;;;16.67;;
45792;SDS011;31495;42.740;22.908;2023-07-31T04:18:51;23.60;;;16.13;;
45792;SDS011;31495;42.740;22.908;2023-07-31T04:19:50;21.52;;;15.65;;
45792;SDS011;31495;42.740;22.908;2023-07-31T04:20:50;25.85;;;17.25;;
45792;SDS011;31495;42.740;22.908;2023-07-31T04:21:49;23.95;;;16.92;;
45792;SDS011;31495;42.740;22.908;2023-07-31T04:22:49;21.08;;;16.13;;
45792;SDS011;31495;42.740;22.908;2023-07-31T04:23:49;23.30;;;16.92;;
45792;SDS011;31495;42.740;22.908;2023-07-31T04:24:48;21.23;;;15.98;;
45792;SDS011;31495;42.740;22.908;2023-07-31T04:25:47;20.70;;;15.60;;
45792;SDS011;31495;42.740;22.908;2023-07-31T04:26:47;25.50;;;17.33;;
45792;SDS011;31495;42.740;22.908;2023-07-31T04:27:46;22.98;;;16.73;;
45792;SDS011;31495;42.740;22.908;2023-07-31T04:28:45;24.65;;;16.85;;
45792;SDS011;31495;42.740;22.908;2023-07-31T04:29:45;23.65;;;17.33;;
45792;SDS011;31495;42.740;22.908;2023-07-31T04:30:46;22.75;;;16.33;;
45792;SDS011;31495;42.740;22.908;2023-07-31T04:31:47;16.83;;;13.10;;
45792;SDS011;31495;42.740;22.908;2023-07-31T04:32:47;17.25;;;13.10;;
45792;SDS011;31495;42.740;22.908;2023-07-31T04:33:46;15.90;;;12.23;;
45792;SDS011;31495;42.740;22.908;2023-07-31T04:34:46;15.63;;;11.40;;
45792;SDS011;31495;42.740;22.908;2023-07-31T04:35:50;13.75;;;10.82;;
45792;SDS011;31495;42.740;22.908;2023-07-31T04:36:54;13.40;;;9.98;;
45792;SDS011;31495;42.740;22.908;2023-07-31T04:37:53;16.40;;;11.30;;
45792;SDS011;31495;42.740;22.908;2023-07-31T04:38:52;16.35;;;11.27;;
45792;SDS011;31495;42.740;22.908;2023-07-31T04:39:52;15.07;;;11.57;;
45792;SDS011;31495;42.740;22.908;2023-07-31T04:40:51;14.65;;;11.27;;
45792;SDS011;31495;42.740;22.908;2023-07-31T04:41:51;16.02;;;12.35;;
45792;SDS011;31495;42.740;22.908;2023-07-31T04:42:50;15.80;;;12.05;;
45792;SDS011;31495;42.740;22.908;2023-07-31T04:43:49;15.35;;;11.07;;
45792;SDS011;31495;42.740;22.908;2023-07-31T04:44:49;16.02;;;11.40;;
45792;SDS011;31495;42.740;22.908;2023-07-31T04:45:48;15.93;;;11.85;;
45792;SDS011;31495;42.740;22.908;2023-07-31T04:46:49;18.10;;;11.88;;
45792;SDS011;31495;42.740;22.908;2023-07-31T04:47:48;18.67;;;12.32;;
45792;SDS011;31495;42.740;22.908;2023-07-31T04:48:48;13.48;;;10.93;;
45792;SDS011;31495;42.740;22.908;2023-07-31T04:49:47;16.75;;;11.07;;
45792;SDS011;31495;42.740;22.908;2023-07-31T04:50:47;14.30;;;10.77;;
45792;SDS011;31495;42.740;22.908;2023-07-31T04:51:46;13.70;;;10.82;;
45792;SDS011;31495;42.740;22.908;2023-07-31T04:52:46;13.43;;;10.35;;
45792;SDS011;31495;42.740;22.908;2023-07-31T04:53:45;12.90;;;9.88;;
45792;SDS011;31495;42.740;22.908;2023-07-31T04:54:45;16.77;;;9.57;;
45792;SDS011;31495;42.740;22.908;2023-07-31T04:55:44;12.73;;;9.65;;
45792;SDS011;31495;42.740;22.908;2023-07-31T04:56:43;13.20;;;8.82;;
45792;SDS011;31495;42.740;22.908;2023-07-31T04:57:43;10.18;;;8.05;;
45792;SDS011;31495;42.740;22.908;2023-07-31T04:58:42;9.85;;;7.93;;
45792;SDS011;31495;42.740;22.908;2023-07-31T04:59:41;10.40;;;7.65;;
45792;SDS011;31495;42.740;22.908;2023-07-31T05:00:41;9.90;;;7.53;;
45792;SDS011;31495;42.740;22.908;2023-07-31T05:01:40;10.73;;;7.90;;
45792;SDS011;31495;42.740;22.908;2023-07-31T05:02:40;12.88;;;6.82;;
45792;SDS011;31495;42.740;22.908;2023-07-31T05:03:39;8.88;;;7.05;;
45792;SDS011;31495;42.740;22.908;2023-07-31T05:04:39;12.25;;;6.60;;
45792;SDS011;31495;42.740;22.908;2023-07-31T05:05:38;11.27;;;6.95;;
45792;SDS011;31495;42.740;22.908;2023-07-31T05:06:38;12.20;;;7.50;;
45792;SDS011;31495;42.740;22.908;2023-07-31T05:07:37;10.63;;;6.95;;
45792;SDS011;31495;42.740;22.908;2023-07-31T05:08:36;9.55;;;6.50;;
45792;SDS011;31495;42.740;22.908;2023-07-31T05:09:36;8.55;;;6.22;;
45792;SDS011;31495;42.740;22.908;2023-07-31T05:10:35;10.40;;;7.82;;
45792;SDS011;31495;42.740;22.908;2023-07-31T05:11:35;9.40;;;7.18;;
45792;SDS011;31495;42.740;22.908;2023-07-31T05:12:34;9.18;;;7.30;;
45792;SDS011;31495;42.740;22.908;2023-07-31T05:13:34;8.25;;;6.43;;
45792;SDS011;31495;42.740;22.908;2023-07-31T05:14:33;8.43;;;5.90;;
45792;SDS011;31495;42.740;22.908;2023-07-31T05:15:33;11.25;;;6.90;;
45792;SDS011;31495;42.740;22.908;2023-07-31T05:16:32;6.60;;;5.40;;
45792;SDS011;31495;42.740;22.908;2023-07-31T05:17:31;7.55;;;5.53;;
45792;SDS011;31495;42.740;22.908;2023-07-31T05:18:31;5.35;;;4.38;;
45792;SDS011;31495;42.740;22.908;2023-07-31T05:19:30;7.25;;;4.70;;
45792;SDS011;31495;42.740;22.908;2023-07-31T05:20:30;9.55;;;5.40;;
45792;SDS011;31495;42.740;22.908;2023-07-31T05:21:29;6.72;;;4.97;;
45792;SDS011;31495;42.740;22.908;2023-07-31T05:22:29;6.45;;;4.95;;
45792;SDS011;31495;42.740;22.908;2023-07-31T05:23:28;5.72;;;4.05;;
45792;SDS011;31495;42.740;22.908;2023-07-31T05:24:28;6.90;;;4.18;;
45792;SDS011;31495;42.740;22.908;2023-07-31T05:25:28;5.63;;;4.13;;
45792;SDS011;31495;42.740;22.908;2023-07-31T05:26:28;9.13;;;4.45;;
45792;SDS011;31495;42.740;22.908;2023-07-31T05:27:27;4.70;;;3.90;;
45792;SDS011;31495;42.740;22.908;2023-07-31T05:28:26;9.40;;;5.55;;
45792;SDS011;31495;42.740;22.908;2023-07-31T05:29:26;12.18;;;5.10;;
45792;SDS011;31495;42.740;22.908;2023-07-31T05:30:25;6.15;;;4.28;;
45792;SDS011;31495;42.740;22.908;2023-07-31T05:31:25;5.10;;;3.90;;
45792;SDS011;31495;42.740;22.908;2023-07-31T05:32:25;5.00;;;3.75;;
45792;SDS011;31495;42.740;22.908;2023-07-31T05:33:24;5.72;;;4.00;;
45792;SDS011;31495;42.740;22.908;2023-07-31T05:34:23;5.22;;;3.83;;
45792;SDS011;31495;42.740;22.908;2023-07-31T05:35:23;5.93;;;3.35;;
45792;SDS011;31495;42.740;22.908;2023-07-31T05:36:23;5.50;;;3.53;;
45792;SDS011;31495;42.740;22.908;2023-07-31T05:37:23;13.70;;;3.92;;
45792;SDS011;31495;42.740;22.908;2023-07-31T05:38:23;4.72;;;3.17;;
45792;SDS011;31495;42.740;22.908;2023-07-31T05:39:22;6.07;;;3.55;;
45792;SDS011;31495;42.740;22.908;2023-07-31T05:40:22;5.07;;;3.10;;
45792;SDS011;31495;42.740;22.908;2023-07-31T05:41:22;10.50;;;4.10;;
45792;SDS011;31495;42.740;22.908;2023-07-31T05:42:22;5.35;;;3.10;;
45792;SDS011;31495;42.740;22.908;2023-07-31T05:43:22;6.82;;;3.90;;
45792;SDS011;31495;42.740;22.908;2023-07-31T05:44:21;6.60;;;3.38;;
45792;SDS011;31495;42.740;22.908;2023-07-31T05:45:21;4.55;;;3.47;;
45792;SDS011;31495;42.740;22.908;2023-07-31T05:46:20;4.40;;;2.80;;
45792;SDS011;31495;42.740;22.908;2023-07-31T05:47:19;5.40;;;3.08;;
45792;SDS011;31495;42.740;22.908;2023-07-31T05:48:19;4.93;;;3.03;;
45792;SDS011;31495;42.740;22.908;2023-07-31T05:49:18;4.88;;;3.13;;
45792;SDS011;31495;42.740;22.908;2023-07-31T05:50:17;4.15;;;2.58;;
45792;SDS011;31495;42.740;22.908;2023-07-31T05:51:17;3.85;;;2.63;;
45792;SDS011;31495;42.740;22.908;2023-07-31T05:52:16;3.38;;;2.30;;
45792;SDS011;31495;42.740;22.908;2023-07-31T05:53:16;5.07;;;3.05;;
45792;SDS011;31495;42.740;22.908;2023-07-31T05:54:15;3.33;;;2.30;;
45792;SDS011;31495;42.740;22.908;2023-07-31T05:55:15;6.15;;;2.60;;
45792;SDS011;31495;42.740;22.908;2023-07-31T05:56:15;3.88;;;2.53;;
45792;SDS011;31495;42.740;22.908;2023-07-31T05:57:15;6.07;;;2.42;;
45792;SDS011;31495;42.740;22.908;2023-07-31T05:58:14;5.82;;;2.42;;
45792;SDS011;31495;42.740;22.908;2023-07-31T05:59:16;3.28;;;2.00;;
45792;SDS011;31495;42.740;22.908;2023-07-31T06:00:15;3.58;;;2.20;;
45792;SDS011;31495;42.740;22.908;2023-07-31T06:01:15;4.22;;;2.38;;